Airfield :
LOGIN :

Register | Disclaimer

   EN    FR    IT 

 










Legend :    VFR   Marginal VFR   IFR   Intensive IFR   Very Intensive IFR
Visi :
Ceiling :
>= 8 km
>= 3000ft
5 to 8 km
1000 to 3000 ft
1500m to 5 km
500 to 1000 ft
800 to 1500m
200 to 500 ft
< 800m
< 200 ft
Symbols :   Thunderstorms  Fog  Heavy snow  Heavy precipitations  Wind > 20 kt
SIGMETs :     Misc.  Thunderstorms  Icing  Turbulence  Mountain Waves  Volcanic Ashes






- Airport Elevation : 11 ft
- IATA code : SXL


EISG - Sligo

CURRENT METAR :
  • 101100Z 31011KT 9999 FEW021 06/02 Q1019

EXPIRED METARs :
  • 101000Z 29004KT 220V360 9999 FEW012 BKN050 05/02 Q1019
  • 100930Z VRB02KT 9999 FEW015 SCT027 BKN060 04/02 Q1019
  • 100900Z 06004KT 030V100 6000 SCT011 BKN019 OVC024 02/00 Q1019
  • 100830Z 27005KT 220V300 9999 FEW047 05/00 Q1019

TAF TAF EISG
Valid from the 10 at 09:00 until the 10 at 18:00 UTC


100800Z 1009/1018 04006KT 9999 FEW018 SCT035
TEMPO 1009/1011 VRB03KT
TEMPO 1009/1018 -SHRAGS SCT018CB
PROB30
TEMPO 1009/1013 4000 SHRAGS
BECMG 1011/1013 33008KT
BECMG 1013/1015 02012KT



MET'MAP, your aeronautical weather chart ! - Copyright ORBIFLY December 2007 - Disclaimer

ORBIFLY MET'MAP TEAM :

Programming & Development : Alexandra Zaïnal
Concept & original design : Baudouin d'Aumeries
Assistance for programming : Marc-Olivier Méhu
Technical & hardware support : Manuel Goepfert

Contact : metmap@orbifly.com




SOURCES & CREDITS :

   NOAA